sensor_id;sensor_type;location;lat;lon;timestamp;temperature;humidity
22532;DHT22;11432;46.924;7.114;2023-06-10T00:01:45;18.20;99.90
22532;DHT22;11432;46.924;7.114;2023-06-10T00:04:15;18.10;99.90
22532;DHT22;11432;46.924;7.114;2023-06-10T00:06:43;18.10;99.90
22532;DHT22;11432;46.924;7.114;2023-06-10T00:09:09;18.10;99.90
22532;DHT22;11432;46.924;7.114;2023-06-10T00:11:38;18.00;99.90
22532;DHT22;11432;46.924;7.114;2023-06-10T00:14:04;18.00;99.90
22532;DHT22;11432;46.924;7.114;2023-06-10T00:16:30;18.00;99.90
22532;DHT22;11432;46.924;7.114;2023-06-10T00:18:56;18.00;99.90
22532;DHT22;11432;46.924;7.114;2023-06-10T00:21:26;18.00;99.90
22532;DHT22;11432;46.924;7.114;2023-06-10T00:23:52;18.00;99.90
22532;DHT22;11432;46.924;7.114;2023-06-10T00:26:17;17.90;99.90
22532;DHT22;11432;46.924;7.114;2023-06-10T00:28:43;17.90;99.90
22532;DHT22;11432;46.924;7.114;2023-06-10T00:31:10;17.90;99.90
22532;DHT22;11432;46.924;7.114;2023-06-10T00:33:36;17.80;99.90
22532;DHT22;11432;46.924;7.114;2023-06-10T00:36:01;17.80;99.90
22532;DHT22;11432;46.924;7.114;2023-06-10T00:38:27;17.80;99.90
22532;DHT22;11432;46.924;7.114;2023-06-10T00:40:53;17.90;99.90
22532;DHT22;11432;46.924;7.114;2023-06-10T00:43:18;17.90;99.90
22532;DHT22;11432;46.924;7.114;2023-06-10T00:45:44;18.00;99.90
22532;DHT22;11432;46.924;7.114;2023-06-10T00:48:10;18.10;99.90
22532;DHT22;11432;46.924;7.114;2023-06-10T00:50:36;18.10;99.90
22532;DHT22;11432;46.924;7.114;2023-06-10T00:53:05;18.10;99.90
22532;DHT22;11432;46.924;7.114;2023-06-10T00:55:31;18.20;99.90
22532;DHT22;11432;46.924;7.114;2023-06-10T00:57:58;17.90;99.90
22532;DHT22;11432;46.924;7.114;2023-06-10T01:00:23;17.90;99.90
22532;DHT22;11432;46.924;7.114;2023-06-10T01:02:49;17.80;99.90
22532;DHT22;11432;46.924;7.114;2023-06-10T01:05:17;17.70;99.90
22532;DHT22;11432;46.924;7.114;2023-06-10T01:10:42;17.70;99.90
22532;DHT22;11432;46.924;7.114;2023-06-10T01:13:10;17.70;99.90
22532;DHT22;11432;46.924;7.114;2023-06-10T01:15:40;17.70;99.90
22532;DHT22;11432;46.924;7.114;2023-06-10T01:18:07;17.80;99.90
22532;DHT22;11432;46.924;7.114;2023-06-10T01:20:36;17.80;99.90
22532;DHT22;11432;46.924;7.114;2023-06-10T01:23:06;17.90;99.90
22532;DHT22;11432;46.924;7.114;2023-06-10T01:25:33;17.90;99.90
22532;DHT22;11432;46.924;7.114;2023-06-10T01:31:13;17.90;99.90
22532;DHT22;11432;46.924;7.114;2023-06-10T01:33:46;17.90;99.90
22532;DHT22;11432;46.924;7.114;2023-06-10T01:36:13;18.00;99.90
22532;DHT22;11432;46.924;7.114;2023-06-10T01:38:43;17.90;99.90
22532;DHT22;11432;46.924;7.114;2023-06-10T01:41:14;17.90;99.90
22532;DHT22;11432;46.924;7.114;2023-06-10T01:43:42;17.90;99.90
22532;DHT22;11432;46.924;7.114;2023-06-10T01:46:09;17.90;99.90
22532;DHT22;11432;46.924;7.114;2023-06-10T01:48:35;17.80;99.90
22532;DHT22;11432;46.924;7.114;2023-06-10T01:51:00;17.80;99.90
22532;DHT22;11432;46.924;7.114;2023-06-10T01:53:26;17.70;99.90
22532;DHT22;11432;46.924;7.114;2023-06-10T01:55:52;17.70;99.90
22532;DHT22;11432;46.924;7.114;2023-06-10T01:58:17;17.60;99.90
22532;DHT22;11432;46.924;7.114;2023-06-10T02:00:43;17.60;99.90
22532;DHT22;11432;46.924;7.114;2023-06-10T02:03:08;17.50;99.90
22532;DHT22;11432;46.924;7.114;2023-06-10T02:05:34;17.50;99.90
22532;DHT22;11432;46.924;7.114;2023-06-10T02:08:00;17.50;99.90
22532;DHT22;11432;46.924;7.114;2023-06-10T02:10:26;17.60;99.90
22532;DHT22;11432;46.924;7.114;2023-06-10T02:12:52;17.60;99.90
22532;DHT22;11432;46.924;7.114;2023-06-10T02:15:17;17.60;99.90
22532;DHT22;11432;46.924;7.114;2023-06-10T02:17:43;17.70;99.90
22532;DHT22;11432;46.924;7.114;2023-06-10T02:20:10;17.60;99.90
22532;DHT22;11432;46.924;7.114;2023-06-10T02:22:36;17.60;99.90
22532;DHT22;11432;46.924;7.114;2023-06-10T02:25:02;17.70;99.90
22532;DHT22;11432;46.924;7.114;2023-06-10T02:27:29;17.70;99.90
22532;DHT22;11432;46.924;7.114;2023-06-10T02:29:56;17.70;99.90
22532;DHT22;11432;46.924;7.114;2023-06-10T02:32:22;17.70;99.90
22532;DHT22;11432;46.924;7.114;2023-06-10T02:34:47;17.70;99.90
22532;DHT22;11432;46.924;7.114;2023-06-10T02:37:14;17.70;99.90
22532;DHT22;11432;46.924;7.114;2023-06-10T02:39:40;17.70;99.90
22532;DHT22;11432;46.924;7.114;2023-06-10T02:42:06;17.70;99.90
22532;DHT22;11432;46.924;7.114;2023-06-10T02:44:32;17.70;99.90
22532;DHT22;11432;46.924;7.114;2023-06-10T02:46:58;17.70;99.90
22532;DHT22;11432;46.924;7.114;2023-06-10T02:49:23;17.70;99.90
22532;DHT22;11432;46.924;7.114;2023-06-10T02:51:50;17.70;99.90
22532;DHT22;11432;46.924;7.114;2023-06-10T02:54:22;17.70;99.90
22532;DHT22;11432;46.924;7.114;2023-06-10T02:56:47;17.70;99.90
22532;DHT22;11432;46.924;7.114;2023-06-10T02:59:14;17.70;99.90
22532;DHT22;11432;46.924;7.114;2023-06-10T03:01:40;17.80;99.90
22532;DHT22;11432;46.924;7.114;2023-06-10T03:04:06;17.70;99.90
22532;DHT22;11432;46.924;7.114;2023-06-10T03:06:32;17.70;99.90
22532;DHT22;11432;46.924;7.114;2023-06-10T03:09:01;17.70;99.90
22532;DHT22;11432;46.924;7.114;2023-06-10T03:11:29;17.80;99.90
22532;DHT22;11432;46.924;7.114;2023-06-10T03:13:56;18.00;99.90
22532;DHT22;11432;46.924;7.114;2023-06-10T03:16:21;18.10;99.90
22532;DHT22;11432;46.924;7.114;2023-06-10T03:18:49;18.10;99.90
22532;DHT22;11432;46.924;7.114;2023-06-10T03:21:14;18.20;99.90
22532;DHT22;11432;46.924;7.114;2023-06-10T03:23:40;18.30;99.90
22532;DHT22;11432;46.924;7.114;2023-06-10T03:26:06;18.10;99.90
22532;DHT22;11432;46.924;7.114;2023-06-10T03:28:31;18.10;99.90
22532;DHT22;11432;46.924;7.114;2023-06-10T03:30:57;18.10;99.90
22532;DHT22;11432;46.924;7.114;2023-06-10T03:33:23;18.10;99.90
22532;DHT22;11432;46.924;7.114;2023-06-10T03:35:49;18.30;99.90
22532;DHT22;11432;46.924;7.114;2023-06-10T03:38:15;18.20;99.90
22532;DHT22;11432;46.924;7.114;2023-06-10T03:40:40;18.10;99.90
22532;DHT22;11432;46.924;7.114;2023-06-10T03:43:06;18.10;99.90
22532;DHT22;11432;46.924;7.114;2023-06-10T03:45:32;18.10;99.90
22532;DHT22;11432;46.924;7.114;2023-06-10T03:47:57;18.10;99.90
22532;DHT22;11432;46.924;7.114;2023-06-10T03:50:23;18.10;99.90
22532;DHT22;11432;46.924;7.114;2023-06-10T03:52:50;18.10;99.90
22532;DHT22;11432;46.924;7.114;2023-06-10T03:55:16;18.10;99.90
22532;DHT22;11432;46.924;7.114;2023-06-10T03:57:42;18.10;99.90
22532;DHT22;11432;46.924;7.114;2023-06-10T04:00:08;18.10;99.90
22532;DHT22;11432;46.924;7.114;2023-06-10T04:02:37;18.10;99.90
22532;DHT22;11432;46.924;7.114;2023-06-10T04:05:02;18.00;99.90
22532;DHT22;11432;46.924;7.114;2023-06-10T04:07:28;18.10;99.90
22532;DHT22;11432;46.924;7.114;2023-06-10T04:09:54;18.30;99.90
22532;DHT22;11432;46.924;7.114;2023-06-10T04:12:19;18.30;99.90
22532;DHT22;11432;46.924;7.114;2023-06-10T04:14:45;18.30;99.90
22532;DHT22;11432;46.924;7.114;2023-06-10T04:17:10;18.20;99.90
22532;DHT22;11432;46.924;7.114;2023-06-10T04:19:36;18.20;99.90
22532;DHT22;11432;46.924;7.114;2023-06-10T04:22:02;18.20;99.90
22532;DHT22;11432;46.924;7.114;2023-06-10T04:24:29;18.20;99.90
22532;DHT22;11432;46.924;7.114;2023-06-10T04:26:54;18.20;99.90
22532;DHT22;11432;46.924;7.114;2023-06-10T04:29:20;18.20;99.90
22532;DHT22;11432;46.924;7.114;2023-06-10T04:31:46;18.20;99.90
22532;DHT22;11432;46.924;7.114;2023-06-10T04:34:12;18.30;99.90
22532;DHT22;11432;46.924;7.114;2023-06-10T04:36:38;18.40;99.90
22532;DHT22;11432;46.924;7.114;2023-06-10T04:39:03;18.40;99.90
22532;DHT22;11432;46.924;7.114;2023-06-10T04:41:31;18.40;99.90
22532;DHT22;11432;46.924;7.114;2023-06-10T04:43:56;18.40;99.90
22532;DHT22;11432;46.924;7.114;2023-06-10T04:46:23;18.40;99.90
22532;DHT22;11432;46.924;7.114;2023-06-10T04:48:49;18.50;99.90
22532;DHT22;11432;46.924;7.114;2023-06-10T04:51:15;18.60;99.90
22532;DHT22;11432;46.924;7.114;2023-06-10T04:53:41;18.60;99.90
22532;DHT22;11432;46.924;7.114;2023-06-10T04:56:07;18.70;99.90
22532;DHT22;11432;46.924;7.114;2023-06-10T04:58:33;18.60;99.90
22532;DHT22;11432;46.924;7.114;2023-06-10T05:00:59;18.70;99.90
22532;DHT22;11432;46.924;7.114;2023-06-10T05:03:26;18.60;99.90
22532;DHT22;11432;46.924;7.114;2023-06-10T05:05:51;18.60;99.90
22532;DHT22;11432;46.924;7.114;2023-06-10T05:08:17;18.50;99.90
22532;DHT22;11432;46.924;7.114;2023-06-10T05:10:43;18.40;99.90
22532;DHT22;11432;46.924;7.114;2023-06-10T05:13:08;18.20;99.90
22532;DHT22;11432;46.924;7.114;2023-06-10T05:15:34;18.30;99.90
22532;DHT22;11432;46.924;7.114;2023-06-10T05:17:59;18.30;99.90
22532;DHT22;11432;46.924;7.114;2023-06-10T05:20:25;18.50;99.90
22532;DHT22;11432;46.924;7.114;2023-06-10T05:22:51;18.40;99.90
22532;DHT22;11432;46.924;7.114;2023-06-10T05:25:17;18.40;99.90
22532;DHT22;11432;46.924;7.114;2023-06-10T05:27:43;18.40;99.90
22532;DHT22;11432;46.924;7.114;2023-06-10T05:30:10;18.20;99.90
22532;DHT22;11432;46.924;7.114;2023-06-10T05:32:35;18.20;99.90
22532;DHT22;11432;46.924;7.114;2023-06-10T05:35:01;18.40;99.90
22532;DHT22;11432;46.924;7.114;2023-06-10T05:37:27;18.30;99.90
22532;DHT22;11432;46.924;7.114;2023-06-10T05:39:53;18.40;99.90
22532;DHT22;11432;46.924;7.114;2023-06-10T05:42:18;18.50;99.90
22532;DHT22;11432;46.924;7.114;2023-06-10T05:44:44;18.40;99.90
22532;DHT22;11432;46.924;7.114;2023-06-10T05:47:09;18.30;99.90
22532;DHT22;11432;46.924;7.114;2023-06-10T05:49:35;18.30;99.90
22532;DHT22;11432;46.924;7.114;2023-06-10T05:52:01;18.40;99.90
22532;DHT22;11432;46.924;7.114;2023-06-10T05:54:26;18.20;99.90
22532;DHT22;11432;46.924;7.114;2023-06-10T05:56:52;18.30;99.90
22532;DHT22;11432;46.924;7.114;2023-06-10T05:59:18;18.30;99.90
22532;DHT22;11432;46.924;7.114;2023-06-10T06:01:43;18.40;99.90
22532;DHT22;11432;46.924;7.114;2023-06-10T06:04:10;18.40;99.90
22532;DHT22;11432;46.924;7.114;2023-06-10T06:06:38;18.50;99.90
22532;DHT22;11432;46.924;7.114;2023-06-10T06:09:05;18.50;99.90
22532;DHT22;11432;46.924;7.114;2023-06-10T06:11:30;18.50;99.90
22532;DHT22;11432;46.924;7.114;2023-06-10T06:13:56;18.60;99.90
22532;DHT22;11432;46.924;7.114;2023-06-10T06:16:22;18.70;99.90
22532;DHT22;11432;46.924;7.114;2023-06-10T06:18:47;18.80;99.90
22532;DHT22;11432;46.924;7.114;2023-06-10T06:21:13;18.80;99.90
22532;DHT22;11432;46.924;7.114;2023-06-10T06:23:38;18.60;99.90
22532;DHT22;11432;46.924;7.114;2023-06-10T06:26:04;18.70;99.90
22532;DHT22;11432;46.924;7.114;2023-06-10T06:28:29;18.70;99.90
22532;DHT22;11432;46.924;7.114;2023-06-10T06:30:56;18.70;99.90
22532;DHT22;11432;46.924;7.114;2023-06-10T06:33:22;18.60;99.90
22532;DHT22;11432;46.924;7.114;2023-06-10T06:35:48;18.40;99.90
22532;DHT22;11432;46.924;7.114;2023-06-10T06:38:13;18.40;99.90
22532;DHT22;11432;46.924;7.114;2023-06-10T06:40:39;18.40;99.90
22532;DHT22;11432;46.924;7.114;2023-06-10T06:43:04;18.50;99.90
22532;DHT22;11432;46.924;7.114;2023-06-10T06:45:30;18.60;99.90
22532;DHT22;11432;46.924;7.114;2023-06-10T06:47:56;18.70;99.90
22532;DHT22;11432;46.924;7.114;2023-06-10T06:50:21;18.80;99.90
22532;DHT22;11432;46.924;7.114;2023-06-10T06:52:47;18.80;99.90
22532;DHT22;11432;46.924;7.114;2023-06-10T06:55:13;19.00;99.90
22532;DHT22;11432;46.924;7.114;2023-06-10T06:57:38;18.90;99.90
22532;DHT22;11432;46.924;7.114;2023-06-10T07:00:05;18.80;99.90
22532;DHT22;11432;46.924;7.114;2023-06-10T07:02:30;18.90;99.90
22532;DHT22;11432;46.924;7.114;2023-06-10T07:04:58;19.00;99.90
22532;DHT22;11432;46.924;7.114;2023-06-10T07:07:24;19.20;99.90
22532;DHT22;11432;46.924;7.114;2023-06-10T07:09:50;19.30;99.90
22532;DHT22;11432;46.924;7.114;2023-06-10T07:12:15;19.20;99.90
22532;DHT22;11432;46.924;7.114;2023-06-10T07:14:41;19.20;99.90
22532;DHT22;11432;46.924;7.114;2023-06-10T07:17:07;19.30;99.90
22532;DHT22;11432;46.924;7.114;2023-06-10T07:19:32;19.40;99.90
22532;DHT22;11432;46.924;7.114;2023-06-10T07:21:58;19.90;99.90
22532;DHT22;11432;46.924;7.114;2023-06-10T07:24:24;20.00;99.90
22532;DHT22;11432;46.924;7.114;2023-06-10T07:26:50;20.00;99.90
22532;DHT22;11432;46.924;7.114;2023-06-10T07:29:16;20.00;99.90
22532;DHT22;11432;46.924;7.114;2023-06-10T07:31:42;19.80;99.90
22532;DHT22;11432;46.924;7.114;2023-06-10T07:34:07;19.70;99.90
22532;DHT22;11432;46.924;7.114;2023-06-10T07:36:33;19.80;99.90
22532;DHT22;11432;46.924;7.114;2023-06-10T07:38:59;19.90;99.90
22532;DHT22;11432;46.924;7.114;2023-06-10T07:41:24;20.10;99.90
22532;DHT22;11432;46.924;7.114;2023-06-10T07:43:52;20.20;99.90
22532;DHT22;11432;46.924;7.114;2023-06-10T07:46:20;20.20;99.90
22532;DHT22;11432;46.924;7.114;2023-06-10T07:48:46;20.10;99.90
22532;DHT22;11432;46.924;7.114;2023-06-10T07:51:12;20.10;99.90
22532;DHT22;11432;46.924;7.114;2023-06-10T07:53:38;20.10;99.90
22532;DHT22;11432;46.924;7.114;2023-06-10T07:56:03;20.20;99.90
22532;DHT22;11432;46.924;7.114;2023-06-10T07:58:29;20.20;99.90
22532;DHT22;11432;46.924;7.114;2023-06-10T08:00:54;20.30;99.90
22532;DHT22;11432;46.924;7.114;2023-06-10T08:03:20;20.40;99.90
22532;DHT22;11432;46.924;7.114;2023-06-10T08:05:46;20.50;99.90
22532;DHT22;11432;46.924;7.114;2023-06-10T08:08:13;20.60;99.90
22532;DHT22;11432;46.924;7.114;2023-06-10T08:10:38;20.70;1.00
22532;DHT22;11432;46.924;7.114;2023-06-10T08:13:04;20.70;1.00
22532;DHT22;11432;46.924;7.114;2023-06-10T08:15:30;20.70;1.00
22532;DHT22;11432;46.924;7.114;2023-06-10T08:17:56;20.80;1.00
22532;DHT22;11432;46.924;7.114;2023-06-10T08:20:24;20.80;1.00
22532;DHT22;11432;46.924;7.114;2023-06-10T08:22:50;20.80;1.00
22532;DHT22;11432;46.924;7.114;2023-06-10T08:25:16;20.80;1.00
22532;DHT22;11432;46.924;7.114;2023-06-10T08:27:41;20.90;1.00
22532;DHT22;11432;46.924;7.114;2023-06-10T08:30:07;20.80;1.00
22532;DHT22;11432;46.924;7.114;2023-06-10T08:32:33;20.70;1.00
22532;DHT22;11432;46.924;7.114;2023-06-10T08:34:59;20.60;1.00
22532;DHT22;11432;46.924;7.114;2023-06-10T08:37:25;20.50;1.00
22532;DHT22;11432;46.924;7.114;2023-06-10T08:39:50;20.70;1.00
22532;DHT22;11432;46.924;7.114;2023-06-10T08:45:03;20.90;1.00
22532;DHT22;11432;46.924;7.114;2023-06-10T08:47:30;21.00;1.00
22532;DHT22;11432;46.924;7.114;2023-06-10T08:50:03;21.20;1.00
22532;DHT22;11432;46.924;7.114;2023-06-10T08:52:33;21.20;1.00
22532;DHT22;11432;46.924;7.114;2023-06-10T08:55:14;21.40;1.00
22532;DHT22;11432;46.924;7.114;2023-06-10T08:57:41;21.50;1.00
22532;DHT22;11432;46.924;7.114;2023-06-10T09:00:08;21.80;1.00
22532;DHT22;11432;46.924;7.114;2023-06-10T09:02:34;21.80;1.00
22532;DHT22;11432;46.924;7.114;2023-06-10T09:05:02;21.80;1.00
22532;DHT22;11432;46.924;7.114;2023-06-10T09:07:32;21.90;1.00
22532;DHT22;11432;46.924;7.114;2023-06-10T09:10:01;21.70;1.00
22532;DHT22;11432;46.924;7.114;2023-06-10T09:12:29;21.50;1.00
22532;DHT22;11432;46.924;7.114;2023-06-10T09:14:55;21.80;1.00
22532;DHT22;11432;46.924;7.114;2023-06-10T09:17:20;22.00;1.00
22532;DHT22;11432;46.924;7.114;2023-06-10T09:19:47;22.00;1.00
22532;DHT22;11432;46.924;7.114;2023-06-10T09:22:13;22.10;28.80
22532;DHT22;11432;46.924;7.114;2023-06-10T09:24:39;22.30;15.60
22532;DHT22;11432;46.924;7.114;2023-06-10T09:27:06;22.30;23.10
22532;DHT22;11432;46.924;7.114;2023-06-10T09:29:53;22.40;11.90
22532;DHT22;11432;46.924;7.114;2023-06-10T09:32:19;22.40;10.30
22532;DHT22;11432;46.924;7.114;2023-06-10T09:34:46;22.20;8.60
22532;DHT22;11432;46.924;7.114;2023-06-10T09:37:12;21.90;8.90
22532;DHT22;11432;46.924;7.114;2023-06-10T09:39:39;22.00;1.00
22532;DHT22;11432;46.924;7.114;2023-06-10T09:42:18;22.30;1.00
22532;DHT22;11432;46.924;7.114;2023-06-10T09:44:51;22.30;6.30
22532;DHT22;11432;46.924;7.114;2023-06-10T09:47:23;22.40;1.10
22532;DHT22;11432;46.924;7.114;2023-06-10T09:49:49;22.70;16.30
22532;DHT22;11432;46.924;7.114;2023-06-10T09:52:22;22.90;28.30
22532;DHT22;11432;46.924;7.114;2023-06-10T09:54:48;23.10;28.40
22532;DHT22;11432;46.924;7.114;2023-06-10T09:57:14;23.20;41.20
22532;DHT22;11432;46.924;7.114;2023-06-10T09:59:42;23.10;43.40
22532;DHT22;11432;46.924;7.114;2023-06-10T10:02:16;22.70;41.00
22532;DHT22;11432;46.924;7.114;2023-06-10T10:04:43;22.70;34.70
22532;DHT22;11432;46.924;7.114;2023-06-10T10:07:09;22.90;28.90
22532;DHT22;11432;46.924;7.114;2023-06-10T10:09:37;23.00;30.50
22532;DHT22;11432;46.924;7.114;2023-06-10T10:12:10;23.00;38.40
22532;DHT22;11432;46.924;7.114;2023-06-10T10:14:45;23.20;38.90
22532;DHT22;11432;46.924;7.114;2023-06-10T10:17:11;23.40;37.20
22532;DHT22;11432;46.924;7.114;2023-06-10T10:19:48;23.40;35.10
22532;DHT22;11432;46.924;7.114;2023-06-10T10:22:20;23.20;25.50
22532;DHT22;11432;46.924;7.114;2023-06-10T10:24:52;23.10;25.10
22532;DHT22;11432;46.924;7.114;2023-06-10T10:27:26;23.40;24.70
22532;DHT22;11432;46.924;7.114;2023-06-10T10:29:54;23.60;22.80
22532;DHT22;11432;46.924;7.114;2023-06-10T10:32:32;23.60;23.00
22532;DHT22;11432;46.924;7.114;2023-06-10T10:35:07;23.80;23.10
22532;DHT22;11432;46.924;7.114;2023-06-10T10:37:33;23.70;25.00
22532;DHT22;11432;46.924;7.114;2023-06-10T10:40:00;23.50;25.50
22532;DHT22;11432;46.924;7.114;2023-06-10T10:42:27;23.60;30.40
22532;DHT22;11432;46.924;7.114;2023-06-10T10:44:53;24.00;25.00
22532;DHT22;11432;46.924;7.114;2023-06-10T10:47:21;24.20;40.40
22532;DHT22;11432;46.924;7.114;2023-06-10T10:49:51;24.00;42.50
22532;DHT22;11432;46.924;7.114;2023-06-10T10:52:18;23.80;30.30
22532;DHT22;11432;46.924;7.114;2023-06-10T10:54:45;23.60;38.80
22532;DHT22;11432;46.924;7.114;2023-06-10T10:57:19;23.80;24.90
22532;DHT22;11432;46.924;7.114;2023-06-10T11:02:40;24.30;39.80
22532;DHT22;11432;46.924;7.114;2023-06-10T11:05:09;24.10;41.20
22532;DHT22;11432;46.924;7.114;2023-06-10T11:07:35;24.50;46.10
22532;DHT22;11432;46.924;7.114;2023-06-10T11:10:12;24.90;41.50
22532;DHT22;11432;46.924;7.114;2023-06-10T11:12:47;24.80;43.10
22532;DHT22;11432;46.924;7.114;2023-06-10T11:15:13;24.70;45.40
22532;DHT22;11432;46.924;7.114;2023-06-10T11:20:54;24.70;39.60
22532;DHT22;11432;46.924;7.114;2023-06-10T11:26:15;24.80;24.00
22532;DHT22;11432;46.924;7.114;2023-06-10T11:29:02;25.00;27.90
22532;DHT22;11432;46.924;7.114;2023-06-10T11:31:35;25.50;15.10
22532;DHT22;11432;46.924;7.114;2023-06-10T11:34:04;25.40;15.70
22532;DHT22;11432;46.924;7.114;2023-06-10T11:36:33;25.20;8.10
22532;DHT22;11432;46.924;7.114;2023-06-10T11:39:02;25.00;14.40
22532;DHT22;11432;46.924;7.114;2023-06-10T11:41:30;25.00;9.10
22532;DHT22;11432;46.924;7.114;2023-06-10T11:43:57;25.10;3.80
22532;DHT22;11432;46.924;7.114;2023-06-10T11:46:26;25.30;8.80
22532;DHT22;11432;46.924;7.114;2023-06-10T11:48:57;25.10;3.20
22532;DHT22;11432;46.924;7.114;2023-06-10T11:51:28;25.20;12.50
22532;DHT22;11432;46.924;7.114;2023-06-10T11:53:54;25.40;4.00
22532;DHT22;11432;46.924;7.114;2023-06-10T11:56:24;25.50;2.00
22532;DHT22;11432;46.924;7.114;2023-06-10T11:58:59;25.80;1.00
22532;DHT22;11432;46.924;7.114;2023-06-10T12:01:30;26.20;1.10
22532;DHT22;11432;46.924;7.114;2023-06-10T12:06:23;26.10;3.80
22532;DHT22;11432;46.924;7.114;2023-06-10T12:08:49;26.10;2.60
22532;DHT22;11432;46.924;7.114;2023-06-10T12:11:14;26.60;4.40
22532;DHT22;11432;46.924;7.114;2023-06-10T12:13:46;26.70;5.50
22532;DHT22;11432;46.924;7.114;2023-06-10T12:16:14;26.90;1.00
22532;DHT22;11432;46.924;7.114;2023-06-10T12:18:39;26.90;7.20
22532;DHT22;11432;46.924;7.114;2023-06-10T12:21:19;26.70;7.50
22532;DHT22;11432;46.924;7.114;2023-06-10T12:24:10;26.50;10.80
22532;DHT22;11432;46.924;7.114;2023-06-10T12:26:41;26.30;10.30
22532;DHT22;11432;46.924;7.114;2023-06-10T12:29:33;26.40;6.80
22532;DHT22;11432;46.924;7.114;2023-06-10T12:32:00;26.70;5.80
22532;DHT22;11432;46.924;7.114;2023-06-10T12:34:37;27.10;1.00
22532;DHT22;11432;46.924;7.114;2023-06-10T12:37:10;27.30;1.00
22532;DHT22;11432;46.924;7.114;2023-06-10T12:39:40;27.20;1.60
22532;DHT22;11432;46.924;7.114;2023-06-10T12:42:06;27.20;1.00
22532;DHT22;11432;46.924;7.114;2023-06-10T12:44:43;27.20;1.00
22532;DHT22;11432;46.924;7.114;2023-06-10T12:47:10;27.30;1.00
22532;DHT22;11432;46.924;7.114;2023-06-10T12:49:38;27.70;1.00
22532;DHT22;11432;46.924;7.114;2023-06-10T12:52:04;27.90;1.00
22532;DHT22;11432;46.924;7.114;2023-06-10T12:54:30;27.90;1.00
22532;DHT22;11432;46.924;7.114;2023-06-10T12:56:56;28.20;1.00
22532;DHT22;11432;46.924;7.114;2023-06-10T12:59:21;27.30;1.00
22532;DHT22;11432;46.924;7.114;2023-06-10T13:01:51;26.90;1.00
22532;DHT22;11432;46.924;7.114;2023-06-10T13:04:17;27.30;1.00
22532;DHT22;11432;46.924;7.114;2023-06-10T13:06:44;27.00;1.00
22532;DHT22;11432;46.924;7.114;2023-06-10T13:09:09;26.50;1.00
22532;DHT22;11432;46.924;7.114;2023-06-10T13:11:36;27.10;1.00
22532;DHT22;11432;46.924;7.114;2023-06-10T13:14:02;26.50;1.00
22532;DHT22;11432;46.924;7.114;2023-06-10T13:16:30;26.00;1.00
22532;DHT22;11432;46.924;7.114;2023-06-10T13:18:55;25.80;1.00
22532;DHT22;11432;46.924;7.114;2023-06-10T13:21:21;25.80;1.00
22532;DHT22;11432;46.924;7.114;2023-06-10T13:23:47;25.40;1.00
22532;DHT22;11432;46.924;7.114;2023-06-10T13:26:14;25.50;1.00
22532;DHT22;11432;46.924;7.114;2023-06-10T13:28:40;25.50;1.00
22532;DHT22;11432;46.924;7.114;2023-06-10T13:31:05;25.50;1.00
22532;DHT22;11432;46.924;7.114;2023-06-10T13:33:31;25.60;1.00
22532;DHT22;11432;46.924;7.114;2023-06-10T13:35:56;25.90;1.00
22532;DHT22;11432;46.924;7.114;2023-06-10T13:38:22;26.30;1.00
22532;DHT22;11432;46.924;7.114;2023-06-10T13:40:48;26.80;1.00
22532;DHT22;11432;46.924;7.114;2023-06-10T13:43:13;27.20;1.00
22532;DHT22;11432;46.924;7.114;2023-06-10T13:45:39;28.20;1.00
22532;DHT22;11432;46.924;7.114;2023-06-10T13:48:05;28.60;1.00
22532;DHT22;11432;46.924;7.114;2023-06-10T13:50:31;27.00;1.00
22532;DHT22;11432;46.924;7.114;2023-06-10T13:52:57;26.10;1.00
22532;DHT22;11432;46.924;7.114;2023-06-10T13:55:22;25.80;1.00
22532;DHT22;11432;46.924;7.114;2023-06-10T13:57:50;25.60;1.00
22532;DHT22;11432;46.924;7.114;2023-06-10T14:00:16;25.40;1.00
22532;DHT22;11432;46.924;7.114;2023-06-10T14:02:42;25.20;1.00
22532;DHT22;11432;46.924;7.114;2023-06-10T14:05:08;25.00;1.00
22532;DHT22;11432;46.924;7.114;2023-06-10T14:07:34;24.80;1.00
22532;DHT22;11432;46.924;7.114;2023-06-10T14:10:00;24.70;1.00
22532;DHT22;11432;46.924;7.114;2023-06-10T14:12:26;24.70;1.00
22532;DHT22;11432;46.924;7.114;2023-06-10T14:14:51;24.70;1.00
22532;DHT22;11432;46.924;7.114;2023-06-10T14:17:17;24.70;1.00
22532;DHT22;11432;46.924;7.114;2023-06-10T14:19:42;24.90;1.00
22532;DHT22;11432;46.924;7.114;2023-06-10T14:22:08;25.00;1.00
22532;DHT22;11432;46.924;7.114;2023-06-10T14:24:34;25.10;1.00
22532;DHT22;11432;46.924;7.114;2023-06-10T14:27:01;25.10;1.00
22532;DHT22;11432;46.924;7.114;2023-06-10T14:29:27;25.70;1.00
22532;DHT22;11432;46.924;7.114;2023-06-10T14:31:55;26.30;1.00
22532;DHT22;11432;46.924;7.114;2023-06-10T14:34:21;28.10;1.00
22532;DHT22;11432;46.924;7.114;2023-06-10T14:36:48;29.00;1.00
22532;DHT22;11432;46.924;7.114;2023-06-10T14:39:14;29.90;1.00
22532;DHT22;11432;46.924;7.114;2023-06-10T14:41:40;28.70;1.00
22532;DHT22;11432;46.924;7.114;2023-06-10T14:44:05;28.50;1.00
22532;DHT22;11432;46.924;7.114;2023-06-10T14:46:31;29.30;1.00
22532;DHT22;11432;46.924;7.114;2023-06-10T14:48:57;29.60;1.00
22532;DHT22;11432;46.924;7.114;2023-06-10T14:51:24;29.90;1.00
22532;DHT22;11432;46.924;7.114;2023-06-10T14:53:50;30.50;1.00
22532;DHT22;11432;46.924;7.114;2023-06-10T14:56:16;30.80;1.00
22532;DHT22;11432;46.924;7.114;2023-06-10T14:58:41;30.80;1.00
22532;DHT22;11432;46.924;7.114;2023-06-10T15:01:07;30.70;1.00
22532;DHT22;11432;46.924;7.114;2023-06-10T15:03:32;30.40;1.00
22532;DHT22;11432;46.924;7.114;2023-06-10T15:05:58;30.00;1.00
22532;DHT22;11432;46.924;7.114;2023-06-10T15:08:26;30.50;1.00
22532;DHT22;11432;46.924;7.114;2023-06-10T15:10:51;30.80;1.00
22532;DHT22;11432;46.924;7.114;2023-06-10T15:13:17;30.70;1.00
22532;DHT22;11432;46.924;7.114;2023-06-10T15:15:42;30.60;1.00
22532;DHT22;11432;46.924;7.114;2023-06-10T15:18:08;30.30;1.00
22532;DHT22;11432;46.924;7.114;2023-06-10T15:20:34;30.50;1.00
22532;DHT22;11432;46.924;7.114;2023-06-10T15:22:59;31.00;1.00
22532;DHT22;11432;46.924;7.114;2023-06-10T15:25:25;30.70;1.00
22532;DHT22;11432;46.924;7.114;2023-06-10T15:27:51;29.70;1.00
22532;DHT22;11432;46.924;7.114;2023-06-10T15:30:17;29.00;1.00
22532;DHT22;11432;46.924;7.114;2023-06-10T15:32:43;28.30;1.00
22532;DHT22;11432;46.924;7.114;2023-06-10T15:35:08;27.40;1.00
22532;DHT22;11432;46.924;7.114;2023-06-10T15:37:34;26.60;1.00
22532;DHT22;11432;46.924;7.114;2023-06-10T15:40:00;26.40;1.00
22532;DHT22;11432;46.924;7.114;2023-06-10T15:42:26;26.30;1.00
22532;DHT22;11432;46.924;7.114;2023-06-10T15:44:52;26.10;1.00
22532;DHT22;11432;46.924;7.114;2023-06-10T15:47:19;25.90;1.00
22532;DHT22;11432;46.924;7.114;2023-06-10T15:49:45;25.80;1.00
22532;DHT22;11432;46.924;7.114;2023-06-10T15:52:10;25.80;1.00
22532;DHT22;11432;46.924;7.114;2023-06-10T15:54:36;25.90;1.00
22532;DHT22;11432;46.924;7.114;2023-06-10T15:57:01;25.90;1.00